Portada
METAR-TAF:

METAR-TAF

Aeroports :

Eureka, Nunavut, Canadà

latitud: 79-59N, longitud: 085-56W, altitud: 10 m

Observació

L'informe es va fer fa 58 minuts, a les 19:00 UTC
Vent 9 kt del Sud/Sud-Est
Temperatura 2°C
Humitat 80%
Pressió 1016 hPa
Visibilitat: 24.1 km
Escasses núvols a una alçada de 1500 ft
Cel cobert a una alçada de 9000 ft

METAR: CWEU 011900Z 16009KT 15SM FEW015 OVC090 02/M01 A2999 RMK SC1AC7 SLP165

Hora: 14:58 (19:58 UTC)


TAF: manca

Observacions i pronòstics meteorològics de més de 4000 aeroports (METAR i TAF).

Les estacions disponibles són els punts grocs i vermells al mapa.

Posi el ratolí al punt desitjat per veure el nom de l'estació.

Feu clic per veure les observacions i els pronòstics meteorològics.

Per canviar el mapa: feu clic els botons verds amb una creu de color negre per apropar; al botó verd amb un guió per allunyar la imatge; o en les fletxes verdes per a mapes adjacents.


METAR-TAF: